Time;durP1;ratioP1;P1;durP2;ratioP2;P2;SDS_P1;SDS_P2;PMS_P1;PMS_P2;Temp;Humidity;BMP_temperature;BMP_pressure;BME280_temperature;BME280_humidity;BME280_pressure;Samples;Min_cycle;Max_cycle;Signal;HPM_P1;HPM_P2
2023/01/19 05:01:15;;;;;;;26.57;13.90;;;-1.30;99.90;;;;;;5661499;23;21267;-70
2023/01/19 05:03:41;;;;;;;25.70;12.47;;;-1.30;99.90;;;;;;4967619;28;20464;-71
2023/01/19 05:06:08;;;;;;;23.73;13.20;;;-1.40;99.90;;;;;;4967158;28;20468;-71
2023/01/19 05:08:35;;;;;;;24.23;13.13;;;-1.40;99.90;;;;;;4967624;28;20476;-71
2023/01/19 05:11:02;;;;;;;19.30;12.33;;;-1.30;99.90;;;;;;4967074;28;20475;-71
2023/01/19 05:13:29;;;;;;;20.60;12.60;;;-1.30;99.90;;;;;;4967459;28;20502;-70
2023/01/19 05:15:55;;;;;;;24.20;11.87;;;-1.30;99.90;;;;;;4966786;28;20452;-71
2023/01/19 05:18:23;;;;;;;20.13;12.40;;;-1.30;99.90;;;;;;4967280;28;20460;-71
2023/01/19 05:20:50;;;;;;;20.83;11.70;;;-1.30;99.90;;;;;;4967288;28;20563;-71
2023/01/19 05:23:17;;;;;;;20.10;11.93;;;-1.30;99.90;;;;;;4967293;28;20456;-70
2023/01/19 05:25:44;;;;;;;18.27;10.90;;;-1.30;99.90;;;;;;4967199;28;20444;-71
2023/01/19 05:28:11;;;;;;;15.13;9.90;;;-1.30;99.90;;;;;;4966517;28;20452;-71
2023/01/19 05:30:38;;;;;;;18.60;11.27;;;-1.30;99.90;;;;;;4966994;28;20488;-74
2023/01/19 05:33:05;;;;;;;18.87;11.00;;;-1.30;99.90;;;;;;4967111;28;20456;-68
2023/01/19 05:35:33;;;;;;;20.40;10.87;;;-1.30;99.90;;;;;;4967350;28;20514;-67
2023/01/19 05:37:59;;;;;;;24.37;14.70;;;-1.30;99.90;;;;;;4966050;28;20956;-67
2023/01/19 05:40:27;;;;;;;21.43;12.17;;;-1.30;99.90;;;;;;4966737;28;21292;-67
2023/01/19 05:42:54;;;;;;;18.77;12.30;;;-1.40;99.90;;;;;;4966697;28;21169;-66
2023/01/19 05:45:21;;;;;;;19.80;13.03;;;-1.40;99.90;;;;;;4966890;28;20462;-67
2023/01/19 05:47:47;;;;;;;19.47;12.00;;;-1.40;99.90;;;;;;4966147;28;20491;-67
2023/01/19 05:50:14;;;;;;;17.60;9.93;;;-1.40;99.90;;;;;;4966970;28;20456;-67
2023/01/19 05:52:42;;;;;;;18.33;11.00;;;-1.40;99.90;;;;;;4967073;28;20448;-66
2023/01/19 05:55:09;;;;;;;19.80;10.97;;;-1.40;99.90;;;;;;4966747;28;20492;-66
2023/01/19 05:57:36;;;;;;;19.30;11.10;;;-1.40;99.90;;;;;;4966194;28;20456;-67
2023/01/19 06:00:04;;;;;;;17.00;11.00;;;-1.40;99.90;;;;;;4966932;28;20460;-67
2023/01/19 06:02:31;;;;;;;17.37;11.30;;;-1.40;99.90;;;;;;4966228;28;20858;-67
2023/01/19 06:04:57;;;;;;;20.20;13.00;;;-1.40;99.90;;;;;;4966498;28;20452;-66
2023/01/19 06:07:24;;;;;;;22.00;14.40;;;-1.40;99.90;;;;;;4965456;28;20464;-66
2023/01/19 06:09:53;;;;;;;19.23;12.53;;;-1.40;99.90;;;;;;4966747;28;20548;-67
2023/01/19 06:12:19;;;;;;;16.90;10.80;;;-1.40;99.90;;;;;;4966482;28;20487;-67
2023/01/19 06:14:46;;;;;;;20.80;12.83;;;-1.40;99.90;;;;;;4966231;28;20850;-67
2023/01/19 06:17:13;;;;;;;22.00;12.60;;;-1.50;99.90;;;;;;4965917;28;20495;-67
2023/01/19 06:19:40;;;;;;;19.77;11.30;;;-1.50;99.90;;;;;;4966669;28;20508;-67
2023/01/19 06:22:07;;;;;;;19.80;10.87;;;-1.50;99.90;;;;;;4966430;28;20480;-68
2023/01/19 06:24:34;;;;;;;15.90;11.03;;;-1.50;99.90;;;;;;4966408;28;20456;-67
2023/01/19 06:27:02;;;;;;;15.73;10.93;;;-1.50;99.90;;;;;;4966126;28;20460;-67
2023/01/19 06:29:29;;;;;;;15.50;10.63;;;-1.50;99.90;;;;;;4966170;28;20448;-67
2023/01/19 06:31:56;;;;;;;15.30;9.30;;;-1.50;99.90;;;;;;4966181;28;21047;-68
2023/01/19 06:34:27;;;;;;;14.90;9.63;;;-1.50;99.90;;;;;;4965872;28;20504;-67
2023/01/19 06:36:54;;;;;;;16.93;9.83;;;-1.40;99.90;;;;;;4965490;28;20466;-67
2023/01/19 06:39:21;;;;;;;15.37;10.43;;;-1.50;99.90;;;;;;4966070;28;20471;-66
2023/01/19 06:41:47;;;;;;;16.83;9.50;;;-1.50;99.90;;;;;;4966641;28;20477;-67
2023/01/19 06:44:16;;;;;;;20.90;10.27;;;-1.50;99.90;;;;;;4966407;28;20463;-67
2023/01/19 06:46:42;;;;;;;27.73;14.50;;;-1.50;99.90;;;;;;4965747;28;20456;-66
2023/01/19 06:49:09;;;;;;;23.10;12.50;;;-1.50;99.90;;;;;;4966114;28;20465;-68
2023/01/19 06:51:36;;;;;;;28.83;14.50;;;-1.50;99.90;;;;;;4966259;28;20887;-66
2023/01/19 06:54:03;;;;;;;20.53;11.43;;;-1.50;99.90;;;;;;4968292;28;20492;-66
2023/01/19 06:56:29;;;;;;;20.47;11.17;;;-1.50;99.90;;;;;;4969372;28;20458;-67
2023/01/19 06:58:56;;;;;;;25.30;14.17;;;-1.50;99.90;;;;;;4969993;28;20571;-68
2023/01/19 07:01:25;;;;;;;20.77;12.80;;;-1.50;99.90;;;;;;4969714;28;20488;-67
2023/01/19 07:03:52;;;;;;;19.13;11.87;;;-1.50;99.90;;;;;;4986738;28;20451;-68
2023/01/19 07:06:19;;;;;;;21.97;12.77;;;-1.50;99.90;;;;;;4988744;28;20463;-67
2023/01/19 07:08:45;;;;;;;24.53;12.47;;;-1.40;99.90;;;;;;4989531;28;20455;-67
2023/01/19 07:11:13;;;;;;;27.70;15.97;;;-1.40;99.90;;;;;;4989187;28;20471;-67
2023/01/19 07:13:41;;;;;;;35.03;15.40;;;-1.40;99.90;;;;;;4989122;28;20455;-68
2023/01/19 07:16:11;;;;;;;19.40;12.00;;;-1.40;99.90;;;;;;4988001;28;20543;-67
2023/01/19 07:18:40;;;;;;;20.17;13.20;;;-1.40;99.90;;;;;;4989134;28;20459;-67
2023/01/19 07:21:08;;;;;;;18.73;11.27;;;-1.40;99.90;;;;;;4988673;28;20484;-67
2023/01/19 07:23:36;;;;;;;20.40;11.47;;;-1.50;99.90;;;;;;4988938;28;20455;-67
2023/01/19 07:26:03;;;;;;;18.77;10.90;;;-1.50;99.90;;;;;;4988239;28;20455;-68
2023/01/19 07:28:31;;;;;;;15.93;10.63;;;-1.50;99.90;;;;;;4988381;28;20460;-67
2023/01/19 07:30:58;;;;;;;19.00;11.30;;;-1.50;99.90;;;;;;4988812;28;20483;-68
2023/01/19 07:33:25;;;;;;;14.27;10.10;;;-1.50;99.90;;;;;;4988896;28;20549;-67
2023/01/19 07:35:53;;;;;;;18.33;10.80;;;-1.50;99.90;;;;;;4988378;28;20549;-67
2023/01/19 07:38:20;;;;;;;19.50;11.83;;;-1.60;99.90;;;;;;4988674;28;20447;-68
2023/01/19 07:40:47;;;;;;;23.50;12.13;;;-1.50;99.90;;;;;;4988595;28;20498;-68
2023/01/19 07:43:14;;;;;;;20.10;12.13;;;-1.60;99.90;;;;;;4988584;28;20558;-67
2023/01/19 07:45:42;;;;;;;21.23;12.53;;;-1.50;99.90;;;;;;4988937;28;20454;-68
2023/01/19 07:48:09;;;;;;;23.00;12.40;;;-1.50;99.90;;;;;;4987864;28;20811;-67
2023/01/19 07:50:35;;;;;;;22.63;13.33;;;-1.50;99.90;;;;;;4988163;28;21051;-67
2023/01/19 07:53:07;;;;;;;21.60;13.50;;;-1.50;99.90;;;;;;4988657;28;20452;-67
2023/01/19 07:55:34;;;;;;;23.03;13.50;;;-1.50;99.90;;;;;;4987934;28;20503;-66
2023/01/19 07:58:02;;;;;;;25.67;14.10;;;-1.50;99.90;;;;;;4988104;28;20459;-67
2023/01/19 08:00:29;;;;;;;20.53;12.40;;;-1.50;99.90;;;;;;4988582;28;20482;-66
2023/01/19 08:02:59;;;;;;;23.07;14.33;;;-1.50;99.90;;;;;;4988379;28;20431;-67
2023/01/19 08:05:27;;;;;;;21.83;13.03;;;-1.50;99.90;;;;;;4987503;28;20447;-67
2023/01/19 08:07:56;;;;;;;28.53;14.57;;;-1.50;99.90;;;;;;4987585;28;20829;-66
2023/01/19 08:10:26;;;;;;;23.10;14.03;;;-1.50;99.90;;;;;;4987989;28;20542;-67
2023/01/19 08:12:53;;;;;;;22.43;14.03;;;-1.50;99.90;;;;;;4988291;28;20843;-67
2023/01/19 08:15:23;;;;;;;24.20;13.50;;;-1.50;99.90;;;;;;4988081;28;20526;-66
2023/01/19 08:17:55;;;;;;;21.67;13.43;;;-1.50;99.90;;;;;;4987126;28;20455;-66
2023/01/19 08:20:23;;;;;;;25.03;14.60;;;-1.50;99.90;;;;;;4987762;28;20448;-66
2023/01/19 08:22:49;;;;;;;22.50;14.03;;;-1.50;99.90;;;;;;4987588;28;20460;-67
2023/01/19 08:25:16;;;;;;;20.63;12.70;;;-1.40;99.90;;;;;;4987710;28;20972;-67
2023/01/19 08:27:45;;;;;;;19.30;12.80;;;-1.40;99.90;;;;;;4987121;28;21072;-66
2023/01/19 08:30:12;;;;;;;20.77;13.30;;;-1.30;99.90;;;;;;4987838;28;20455;-66
2023/01/19 08:32:39;;;;;;;21.23;13.50;;;-1.20;99.90;;;;;;4987519;28;20448;-66
2023/01/19 08:35:07;;;;;;;23.03;13.83;;;-1.10;99.90;;;;;;4987539;28;20492;-67
2023/01/19 08:37:33;;;;;;;25.80;14.10;;;-1.00;99.90;;;;;;4987271;28;20451;-67
2023/01/19 08:40:00;;;;;;;23.67;12.97;;;-0.90;99.90;;;;;;4987639;28;20469;-67
2023/01/19 08:42:27;;;;;;;24.37;15.00;;;-0.80;99.90;;;;;;4987214;28;20479;-66
2023/01/19 08:44:55;;;;;;;24.43;14.47;;;-0.70;99.90;;;;;;4987563;28;20456;-67
2023/01/19 08:47:22;;;;;;;26.60;14.67;;;-0.60;99.90;;;;;;4986702;28;20466;-67
2023/01/19 08:49:49;;;;;;;25.10;14.47;;;-0.50;99.90;;;;;;4987094;28;21022;-67
2023/01/19 08:52:15;;;;;;;28.53;16.57;;;-0.50;99.90;;;;;;4987546;28;20474;-67
2023/01/19 08:54:42;;;;;;;29.20;17.80;;;-0.40;99.90;;;;;;4987180;28;20539;-67
2023/01/19 08:57:09;;;;;;;31.00;16.47;;;-0.40;99.90;;;;;;4985543;28;20455;-67
2023/01/19 08:59:37;;;;;;;24.37;15.03;;;-0.30;99.90;;;;;;4987293;28;20471;-67
2023/01/19 09:02:05;;;;;;;20.97;12.87;;;-0.30;99.90;;;;;;4987307;28;20483;-68
2023/01/19 09:04:35;;;;;;;21.53;12.63;;;-0.20;99.90;;;;;;4987166;28;21208;-67
2023/01/19 09:07:02;;;;;;;20.97;12.97;;;-0.20;99.90;;;;;;4986690;28;20514;-68
2023/01/19 09:09:28;;;;;;;18.97;12.40;;;-0.10;99.90;;;;;;4986763;28;20458;-67
2023/01/19 09:11:55;;;;;;;18.93;11.80;;;-0.10;99.90;;;;;;4986949;28;20475;-67
2023/01/19 09:14:22;;;;;;;18.87;12.13;;;0.00;99.90;;;;;;4987040;28;20463;-68
2023/01/19 09:16:49;;;;;;;23.63;13.40;;;0.10;99.90;;;;;;4984931;28;21277;-67
2023/01/19 09:19:17;;;;;;;26.40;14.67;;;0.10;99.90;;;;;;4986996;28;20474;-68
2023/01/19 09:21:44;;;;;;;18.23;11.30;;;0.20;99.90;;;;;;4986442;28;20474;-67
2023/01/19 09:24:11;;;;;;;19.63;11.83;;;0.20;99.90;;;;;;4986615;28;20534;-67
2023/01/19 09:26:39;;;;;;;20.57;11.67;;;0.20;99.90;;;;;;4986145;28;20460;-68
2023/01/19 09:29:06;;;;;;;19.67;12.20;;;0.30;99.90;;;;;;4986251;28;20970;-67
2023/01/19 09:31:33;;;;;;;20.03;11.80;;;0.40;99.90;;;;;;4986220;28;20484;-67
2023/01/19 09:33:59;;;;;;;18.50;12.33;;;0.40;99.90;;;;;;4986947;28;20463;-67
2023/01/19 09:36:28;;;;;;;18.90;11.50;;;0.50;99.90;;;;;;4985772;28;20498;-68
2023/01/19 09:38:55;;;;;;;16.27;12.13;;;0.50;99.90;;;;;;4986495;28;20607;-67
2023/01/19 09:41:24;;;;;;;20.80;12.40;;;0.60;99.90;;;;;;4986389;28;20480;-67
2023/01/19 09:43:55;;;;;;;19.07;12.23;;;0.70;99.90;;;;;;4986177;28;20459;-67
2023/01/19 09:46:27;;;;;;;17.80;12.00;;;0.70;99.90;;;;;;4985476;28;20959;-68
2023/01/19 09:48:57;;;;;;;20.97;12.33;;;0.80;99.90;;;;;;4986093;28;20454;-67
2023/01/19 09:51:25;;;;;;;18.77;11.83;;;0.90;99.90;;;;;;4986217;28;20480;-67
2023/01/19 09:53:59;;;;;;;19.23;11.47;;;0.90;99.90;;;;;;4985920;28;20471;-67
2023/01/19 09:56:28;;;;;;;18.10;11.80;;;0.90;99.90;;;;;;4985267;28;20479;-67
2023/01/19 09:58:54;;;;;;;17.37;11.13;;;1.00;99.90;;;;;;4986413;28;20829;-67
2023/01/19 10:01:36;;;;;;;13.17;10.23;;;1.00;99.90;;;;;;4986470;28;20487;-67
2023/01/19 10:04:31;;;;;;;18.77;11.73;;;1.10;99.90;;;;;;4986767;28;20439;-67
2023/01/19 10:07:13;;;;;;;15.30;10.20;;;1.10;99.90;;;;;;4984464;28;20466;-68
2023/01/19 10:10:02;;;;;;;16.47;11.07;;;1.10;99.90;;;;;;4987010;28;20443;-67
2023/01/19 10:12:42;;;;;;;27.90;18.37;;;1.20;99.90;;;;;;4986456;28;20479;-67
2023/01/19 10:15:19;;;;;;;21.17;14.50;;;1.30;99.90;;;;;;4986626;28;20498;-69
2023/01/19 10:17:56;;;;;;;18.60;11.37;;;1.30;99.90;;;;;;4985537;28;20443;-66
2023/01/19 10:20:32;;;;;;;16.63;11.57;;;1.40;99.90;;;;;;4981357;28;20512;-67
2023/01/19 10:23:00;;;;;;;17.00;9.67;;;1.40;99.90;;;;;;4963967;28;20512;-68
2023/01/19 10:25:28;;;;;;;16.00;11.13;;;1.50;99.90;;;;;;4982929;28;20462;-67
2023/01/19 10:27:55;;;;;;;15.20;10.63;;;1.50;99.90;;;;;;4985254;28;20461;-70
2023/01/19 10:30:26;;;;;;;20.67;10.80;;;1.50;99.90;;;;;;4990020;28;20465;-67
2023/01/19 10:32:53;;;;;;;19.83;10.57;;;1.60;99.90;;;;;;4988921;28;20459;-67
2023/01/19 10:35:23;;;;;;;15.53;9.90;;;1.60;99.90;;;;;;4987449;28;21034;-67
2023/01/19 10:37:52;;;;;;;12.67;9.97;;;1.70;99.90;;;;;;4989135;28;20858;-68
2023/01/19 10:40:31;;;;;;;10.93;7.03;;;1.70;99.90;;;;;;4989249;28;20967;-68
2023/01/19 10:42:58;;;;;;;10.87;7.67;;;1.70;99.90;;;;;;4989636;28;20960;-68
2023/01/19 10:45:28;;;;;;;10.63;6.47;;;1.60;99.90;;;;;;4989551;28;20452;-68
2023/01/19 10:47:57;;;;;;;11.20;7.90;;;1.50;99.90;;;;;;4988905;28;20554;-67
2023/01/19 10:50:26;;;;;;;13.47;8.90;;;1.60;99.90;;;;;;4989425;28;20455;-67
2023/01/19 10:52:55;;;;;;;11.70;7.50;;;1.60;99.90;;;;;;4989168;28;20982;-67
2023/01/19 10:55:28;;;;;;;13.83;8.50;;;1.60;99.90;;;;;;4989287;28;20505;-67
2023/01/19 10:57:57;;;;;;;19.10;10.63;;;1.70;99.90;;;;;;4989683;28;20490;-67
2023/01/19 11:00:33;;;;;;;20.73;10.20;;;1.70;99.90;;;;;;4989594;28;20455;-67
2023/01/19 11:03:00;;;;;;;15.07;9.13;;;1.90;99.90;;;;;;4989324;28;20943;-67
2023/01/19 11:05:29;;;;;;;10.80;6.70;;;1.90;99.90;;;;;;4989422;28;20491;-66
2023/01/19 11:07:56;;;;;;;11.23;7.20;;;1.90;99.90;;;;;;4987857;28;20457;-67
2023/01/19 11:10:25;;;;;;;15.30;7.13;;;2.00;99.90;;;;;;4988935;28;20467;-66
2023/01/19 11:13:00;;;;;;;11.43;7.67;;;2.00;99.90;;;;;;4989240;28;20470;-67
2023/01/19 11:15:34;;;;;;;13.70;7.87;;;2.10;99.90;;;;;;4989067;28;20502;-67
2023/01/19 11:18:03;;;;;;;13.97;7.37;;;2.00;99.90;;;;;;4988180;28;20967;-67
2023/01/19 11:20:42;;;;;;;14.97;8.10;;;2.10;99.90;;;;;;4989055;28;20447;-67
2023/01/19 11:23:22;;;;;;;11.20;7.83;;;2.00;99.90;;;;;;4988839;28;20459;-69
2023/01/19 11:25:51;;;;;;;10.60;7.03;;;2.00;99.90;;;;;;4989193;28;20440;-69
2023/01/19 11:28:24;;;;;;;7.60;6.30;;;1.90;99.90;;;;;;4988783;28;20455;-67
2023/01/19 11:30:55;;;;;;;11.43;7.90;;;1.90;99.90;;;;;;4988802;28;20489;-68
2023/01/19 11:33:27;;;;;;;12.10;7.60;;;1.90;99.90;;;;;;4988774;28;20819;-66
2023/01/19 11:36:04;;;;;;;9.63;7.70;;;1.90;99.90;;;;;;4988012;28;20491;-68
2023/01/19 11:38:32;;;;;;;10.83;6.60;;;2.00;99.90;;;;;;4988282;28;20458;-67
2023/01/19 11:41:03;;;;;;;9.93;6.73;;;2.00;99.90;;;;;;4987618;28;20848;-67
2023/01/19 11:43:31;;;;;;;10.13;6.70;;;1.90;99.90;;;;;;4988796;28;20509;-68
2023/01/19 11:45:59;;;;;;;11.63;7.20;;;1.90;99.90;;;;;;4988143;28;20805;-67
2023/01/19 11:48:30;;;;;;;15.50;7.93;;;2.00;99.90;;;;;;4988396;28;20563;-67
2023/01/19 11:51:02;;;;;;;11.03;6.40;;;2.00;99.90;;;;;;4988161;28;20480;-67
2023/01/19 11:53:33;;;;;;;12.57;8.03;;;2.10;99.90;;;;;;4988262;28;20459;-67
2023/01/19 11:56:04;;;;;;;9.77;6.40;;;2.20;99.90;;;;;;4987926;28;20495;-67
2023/01/19 11:58:37;;;;;;;9.90;6.43;;;2.30;99.90;;;;;;4988388;28;20940;-67
2023/01/19 12:01:12;;;;;;;9.10;6.17;;;2.30;99.90;;;;;;4987852;28;20491;-67
2023/01/19 12:03:42;;;;;;;10.83;7.70;;;2.30;99.90;;;;;;4988072;28;20462;-67
2023/01/19 12:06:13;;;;;;;9.83;6.63;;;2.30;99.90;;;;;;4986846;28;20448;-66
2023/01/19 12:08:44;;;;;;;12.60;6.13;;;2.30;99.90;;;;;;4987993;28;20811;-68
2023/01/19 12:11:17;;;;;;;11.10;6.90;;;2.30;99.90;;;;;;4988039;28;20475;-67
2023/01/19 12:13:46;;;;;;;8.10;6.17;;;2.40;99.90;;;;;;4987912;28;20490;-66
2023/01/19 12:16:19;;;;;;;14.53;6.20;;;2.40;99.90;;;;;;4987248;28;20495;-67
2023/01/19 12:18:49;;;;;;;8.40;5.60;;;2.30;99.90;;;;;;4988014;28;20479;-67
2023/01/19 12:21:17;;;;;;;13.77;5.70;;;2.30;99.90;;;;;;4988042;28;20483;-67
2023/01/19 12:23:50;;;;;;;11.83;6.40;;;2.30;99.90;;;;;;4987577;28;20469;-67
2023/01/19 12:26:27;;;;;;;8.10;6.33;;;2.30;99.90;;;;;;4987040;28;20455;-68
2023/01/19 12:29:00;;;;;;;9.27;6.40;;;2.30;99.90;;;;;;4987822;28;20463;-67
2023/01/19 12:31:27;;;;;;;8.93;5.27;;;2.30;99.90;;;;;;4987796;28;20718;-67
2023/01/19 12:33:54;;;;;;;10.60;6.30;;;2.20;99.90;;;;;;4987668;28;20455;-69
2023/01/19 12:36:39;;;;;;;13.73;7.77;;;2.20;99.90;;;;;;4986684;28;20502;-67
2023/01/19 12:39:16;;;;;;;10.17;6.57;;;2.20;99.90;;;;;;4987068;28;20455;-67
2023/01/19 12:41:44;;;;;;;14.80;6.93;;;2.30;99.90;;;;;;4987374;28;20475;-68
2023/01/19 12:44:33;;;;;;;11.20;6.63;;;2.20;99.90;;;;;;4987806;28;20451;-66
2023/01/19 12:47:18;;;;;;;9.50;6.33;;;2.20;99.90;;;;;;4986831;28;20461;-67
2023/01/19 12:49:48;;;;;;;10.97;7.13;;;2.10;99.90;;;;;;4987384;28;20972;-65
2023/01/19 12:52:26;;;;;;;10.90;6.83;;;2.10;99.90;;;;;;4987257;28;20495;-65
2023/01/19 12:55:22;;;;;;;13.20;7.40;;;2.10;99.90;;;;;;4987540;28;20471;-66
2023/01/19 12:57:57;;;;;;;18.63;7.90;;;2.10;99.90;;;;;;4984737;28;20477;-66
2023/01/19 13:00:32;;;;;;;11.20;8.67;;;2.10;99.90;;;;;;4986224;28;20461;-67
2023/01/19 13:03:00;;;;;;;10.90;7.43;;;2.10;99.90;;;;;;4985865;28;20935;-66
2023/01/19 13:05:57;;;;;;;10.90;7.30;;;2.20;99.90;;;;;;4986191;28;20544;-66
2023/01/19 13:08:28;;;;;;;11.67;7.93;;;2.20;99.90;;;;;;4985946;28;20506;-66
2023/01/19 13:11:19;;;;;;;11.67;7.83;;;2.30;99.90;;;;;;4985815;28;20498;-67
2023/01/19 13:14:27;;;;;;;11.83;7.60;;;2.30;99.90;;;;;;4986122;28;20538;-66
2023/01/19 13:17:06;;;;;;;12.20;8.07;;;2.40;99.90;;;;;;4985153;28;21082;-66
2023/01/19 13:19:47;;;;;;;10.17;7.93;;;2.40;99.90;;;;;;4986205;28;20443;-69
2023/01/19 13:23:01;;;;;;;10.87;8.17;;;2.40;99.90;;;;;;4985578;28;20550;-67
2023/01/19 13:25:32;;;;;;;29.20;10.27;;;2.40;99.90;;;;;;4986013;28;20460;-67
2023/01/19 13:28:00;;;;;;;14.43;9.20;;;2.40;99.90;;;;;;4985421;28;20471;-67
2023/01/19 13:30:29;;;;;;;12.23;8.33;;;2.40;99.90;;;;;;4985706;28;20490;-66
2023/01/19 13:33:15;;;;;;;12.37;8.20;;;2.30;99.90;;;;;;4985826;28;20462;-66
2023/01/19 13:35:52;;;;;;;17.87;8.00;;;2.30;99.90;;;;;;4985379;28;20454;-68
2023/01/19 13:38:20;;;;;;;10.43;7.50;;;2.30;99.90;;;;;;4985647;28;20695;-67
2023/01/19 13:40:47;;;;;;;13.10;8.30;;;2.30;99.90;;;;;;4986275;28;20479;-67
2023/01/19 13:43:20;;;;;;;12.50;8.40;;;2.30;99.90;;;;;;4986496;28;20469;-67
2023/01/19 13:45:49;;;;;;;14.83;9.10;;;2.40;99.90;;;;;;4985946;28;20447;-70
2023/01/19 13:48:21;;;;;;;12.40;8.80;;;2.30;99.90;;;;;;4986025;28;20451;-68
2023/01/19 13:50:59;;;;;;;9.53;7.63;;;2.30;99.90;;;;;;4986088;28;20529;-66
2023/01/19 13:53:26;;;;;;;10.67;7.30;;;2.20;99.90;;;;;;4986118;28;20459;-68
2023/01/19 13:56:07;;;;;;;14.03;8.13;;;2.20;99.90;;;;;;4985985;28;20494;-66
2023/01/19 13:58:34;;;;;;;11.57;8.40;;;2.20;99.90;;;;;;4986303;28;20455;-68
2023/01/19 14:01:01;;;;;;;11.13;7.67;;;2.30;99.90;;;;;;4986239;28;20489;-66
2023/01/19 14:03:29;;;;;;;13.77;7.77;;;2.30;99.90;;;;;;4985838;28;20460;-66
2023/01/19 14:05:55;;;;;;;13.17;9.00;;;2.30;99.90;;;;;;4985603;28;20448;-67
2023/01/19 14:08:24;;;;;;;9.80;7.20;;;2.20;99.90;;;;;;4985902;28;20458;-66
2023/01/19 14:11:01;;;;;;;12.37;8.30;;;2.20;99.90;;;;;;4986333;28;20895;-67
2023/01/19 14:13:30;;;;;;;12.80;7.80;;;2.10;99.90;;;;;;4985284;28;20443;-66
2023/01/19 14:15:59;;;;;;;13.10;8.37;;;2.20;99.90;;;;;;4985385;28;20885;-67
2023/01/19 14:18:30;;;;;;;14.07;8.77;;;2.20;99.90;;;;;;4985855;28;20456;-66
2023/01/19 14:21:00;;;;;;;11.30;6.83;;;2.20;99.90;;;;;;4986031;28;20523;-67
2023/01/19 14:23:47;;;;;;;11.87;7.30;;;2.20;99.90;;;;;;4986379;28;20502;-67
2023/01/19 14:26:40;;;;;;;19.03;8.70;;;2.20;99.90;;;;;;4985554;28;20546;-67
2023/01/19 14:29:15;;;;;;;23.57;10.07;;;2.20;99.90;;;;;;4985686;28;21246;-67
2023/01/19 14:31:43;;;;;;;18.77;10.60;;;2.10;99.90;;;;;;4986188;28;20475;-68
2023/01/19 14:34:34;;;;;;;16.93;10.17;;;2.10;99.90;;;;;;4985715;28;20986;-66
2023/01/19 14:37:02;;;;;;;15.63;8.77;;;2.10;99.90;;;;;;4985026;28;20496;-67
2023/01/19 14:39:31;;;;;;;13.90;9.20;;;2.10;99.90;;;;;;4985874;28;20455;-67
2023/01/19 14:42:01;;;;;;;11.97;8.60;;;2.00;99.90;;;;;;4985818;28;20468;-67
2023/01/19 14:44:33;;;;;;;12.27;8.27;;;2.00;99.90;;;;;;4986075;28;20451;-67
2023/01/19 14:47:01;;;;;;;10.63;7.10;;;2.10;99.90;;;;;;4985180;28;20479;-67
2023/01/19 14:49:34;;;;;;;15.50;8.43;;;2.20;99.90;;;;;;4985890;28;20459;-67
2023/01/19 14:52:06;;;;;;;17.73;10.40;;;2.20;99.90;;;;;;4985642;28;21413;-66
2023/01/19 14:54:37;;;;;;;13.47;8.40;;;2.20;99.90;;;;;;4985103;28;20431;-67
2023/01/19 14:57:05;;;;;;;12.60;8.90;;;2.30;99.90;;;;;;4985201;28;20574;-68
2023/01/19 14:59:32;;;;;;;13.93;8.33;;;2.30;99.90;;;;;;4985386;28;20455;-67
2023/01/19 15:02:00;;;;;;;18.70;9.30;;;2.30;99.90;;;;;;4985603;28;20487;-67
2023/01/19 15:04:27;;;;;;;28.37;18.53;;;2.40;99.90;;;;;;4985602;28;20551;-67
2023/01/19 15:06:59;;;;;;;10.10;7.67;;;2.40;99.90;;;;;;4984748;28;20530;-67
2023/01/19 15:09:26;;;;;;;13.90;8.87;;;2.40;99.90;;;;;;4985648;28;20779;-67
2023/01/19 15:11:53;;;;;;;16.50;7.97;;;2.40;99.90;;;;;;4985590;28;20560;-68
2023/01/19 15:14:21;;;;;;;13.10;8.67;;;2.40;99.90;;;;;;4986448;28;20458;-67
2023/01/19 15:16:48;;;;;;;13.00;7.77;;;2.40;99.90;;;;;;4988187;28;20499;-67
2023/01/19 15:19:17;;;;;;;10.63;8.50;;;2.30;99.90;;;;;;4989327;28;20470;-67
2023/01/19 15:21:45;;;;;;;15.00;9.00;;;2.30;99.90;;;;;;4989112;28;20477;-68
2023/01/19 15:24:14;;;;;;;15.00;9.40;;;2.20;99.90;;;;;;4989203;28;20466;-67
2023/01/19 15:26:42;;;;;;;18.37;9.50;;;2.20;99.90;;;;;;4988242;28;20455;-67
2023/01/19 15:29:24;;;;;;;20.00;9.20;;;2.20;99.90;;;;;;4988756;28;20448;-67
2023/01/19 15:31:52;;;;;;;15.30;8.97;;;2.20;99.90;;;;;;4988598;28;20988;-67
2023/01/19 15:34:19;;;;;;;13.30;9.80;;;2.20;99.90;;;;;;4988543;28;20952;-67
2023/01/19 15:36:45;;;;;;;17.00;9.80;;;2.30;99.90;;;;;;4987957;28;20502;-68
2023/01/19 15:39:13;;;;;;;21.67;11.00;;;2.30;99.90;;;;;;4987272;28;20447;-67
2023/01/19 15:41:40;;;;;;;16.03;10.10;;;2.40;99.90;;;;;;4988291;28;20482;-67
2023/01/19 15:44:10;;;;;;;16.40;11.50;;;2.40;99.90;;;;;;4988725;28;21099;-67
2023/01/19 15:46:38;;;;;;;18.73;10.40;;;2.40;99.90;;;;;;4987888;28;20451;-67
2023/01/19 15:49:05;;;;;;;15.77;10.40;;;2.40;99.90;;;;;;4988488;28;20459;-67
2023/01/19 15:51:32;;;;;;;19.33;10.73;;;2.40;99.90;;;;;;4987908;28;20483;-69
2023/01/19 15:53:59;;;;;;;17.80;10.23;;;2.40;99.90;;;;;;4988274;28;20455;-67
2023/01/19 15:56:29;;;;;;;15.73;10.90;;;2.40;99.90;;;;;;4987759;28;20470;-67
2023/01/19 15:58:56;;;;;;;13.37;10.00;;;2.40;99.90;;;;;;4988032;28;20456;-67
2023/01/19 16:01:29;;;;;;;14.93;9.17;;;2.40;99.90;;;;;;4987998;28;20490;-67
2023/01/19 16:03:59;;;;;;;12.13;8.93;;;2.40;99.90;;;;;;4988383;28;20539;-67
2023/01/19 16:06:26;;;;;;;17.73;10.83;;;2.40;99.90;;;;;;4987666;28;20455;-67
2023/01/19 16:08:58;;;;;;;17.47;10.87;;;2.40;99.90;;;;;;4988311;28;20457;-68
2023/01/19 16:11:27;;;;;;;14.03;9.93;;;2.40;99.90;;;;;;4987652;28;20490;-68
2023/01/19 16:13:54;;;;;;;15.80;9.90;;;2.30;99.90;;;;;;4987701;28;20458;-67
2023/01/19 16:16:22;;;;;;;20.40;13.90;;;2.30;99.90;;;;;;4987444;28;20455;-68
2023/01/19 16:18:51;;;;;;;20.90;12.07;;;2.30;99.90;;;;;;4988215;28;20882;-68
2023/01/19 16:21:18;;;;;;;19.00;11.57;;;2.30;99.90;;;;;;4987984;28;20852;-69
2023/01/19 16:23:45;;;;;;;16.30;11.00;;;2.30;99.90;;;;;;4988150;28;20487;-69
2023/01/19 16:26:28;;;;;;;20.93;12.13;;;2.30;99.90;;;;;;4986620;28;20464;-67
2023/01/19 16:28:59;;;;;;;17.17;12.27;;;2.30;99.90;;;;;;4988119;28;20535;-67
2023/01/19 16:31:27;;;;;;;22.93;11.57;;;2.20;99.90;;;;;;4948906;28;20901;-71
2023/01/19 16:33:54;;;;;;;28.70;13.90;;;2.20;99.90;;;;;;4949487;29;20460;-71
2023/01/19 16:36:24;;;;;;;35.67;16.50;;;2.20;99.90;;;;;;4948837;29;20465;-71
2023/01/19 16:38:51;;;;;;;37.80;18.50;;;2.20;99.90;;;;;;4949277;29;20520;-71
2023/01/19 16:41:18;;;;;;;27.43;15.37;;;2.20;99.90;;;;;;4949275;28;20517;-72
2023/01/19 16:43:53;;;;;;;29.90;14.73;;;2.20;99.90;;;;;;4949627;29;20552;-71
2023/01/19 16:46:23;;;;;;;22.43;12.87;;;2.10;99.90;;;;;;4948716;29;20445;-71
2023/01/19 16:48:50;;;;;;;25.50;12.77;;;2.10;99.90;;;;;;4948813;29;20476;-71
2023/01/19 16:51:18;;;;;;;24.60;13.37;;;2.10;99.90;;;;;;4948187;28;20876;-70
2023/01/19 16:53:48;;;;;;;24.73;13.70;;;2.00;99.90;;;;;;4949209;29;20457;-70
2023/01/19 16:56:15;;;;;;;25.83;14.00;;;2.10;99.90;;;;;;4947355;29;20464;-70
2023/01/19 16:58:42;;;;;;;42.30;21.60;;;2.10;99.90;;;;;;4948016;28;20500;-71
2023/01/19 17:01:13;;;;;;;35.27;18.07;;;2.10;99.90;;;;;;4948353;28;20513;-71
2023/01/19 17:03:40;;;;;;;29.63;18.30;;;2.00;99.90;;;;;;4947842;29;20461;-71
2023/01/19 17:06:09;;;;;;;30.83;16.67;;;2.00;99.90;;;;;;4948092;29;20942;-70
2023/01/19 17:08:37;;;;;;;24.63;14.80;;;2.00;99.90;;;;;;4948591;29;21320;-70
2023/01/19 17:11:10;;;;;;;24.83;15.40;;;1.90;99.90;;;;;;4948174;28;20989;-70
2023/01/19 17:13:37;;;;;;;29.20;15.07;;;1.90;99.90;;;;;;4948371;29;20461;-70
2023/01/19 17:16:05;;;;;;;31.13;14.73;;;1.90;99.90;;;;;;4947160;28;20457;-71
2023/01/19 17:18:35;;;;;;;33.83;16.60;;;1.90;99.90;;;;;;4947666;29;20592;-71
2023/01/19 17:21:04;;;;;;;30.13;15.70;;;1.90;99.90;;;;;;4947217;28;20485;-71
2023/01/19 17:23:31;;;;;;;27.47;15.20;;;1.90;99.90;;;;;;4947371;29;21449;-71
2023/01/19 17:25:59;;;;;;;30.77;16.33;;;1.90;99.90;;;;;;4948385;28;20457;-71
2023/01/19 17:28:26;;;;;;;24.97;15.47;;;1.90;99.90;;;;;;4947774;29;20510;-71
2023/01/19 17:30:53;;;;;;;26.73;15.33;;;1.80;99.90;;;;;;4947627;28;20477;-71
2023/01/19 17:33:21;;;;;;;27.47;17.00;;;1.90;99.90;;;;;;4947567;29;20985;-71
2023/01/19 17:35:49;;;;;;;30.63;16.73;;;1.90;99.90;;;;;;4948414;29;20486;-71
2023/01/19 17:38:16;;;;;;;33.03;20.00;;;1.80;99.90;;;;;;4947132;28;20508;-71
2023/01/19 17:40:43;;;;;;;37.30;18.60;;;1.90;99.90;;;;;;4947798;28;21094;-70
2023/01/19 17:43:10;;;;;;;29.73;17.83;;;1.90;99.90;;;;;;4947989;29;20546;-71
2023/01/19 17:45:37;;;;;;;30.27;18.07;;;1.90;99.90;;;;;;4947744;29;20960;-71
2023/01/19 17:48:05;;;;;;;24.00;15.40;;;1.90;99.90;;;;;;4947615;29;20449;-71
2023/01/19 17:50:33;;;;;;;27.30;16.07;;;1.90;99.90;;;;;;4948126;28;20454;-70
2023/01/19 17:53:01;;;;;;;25.50;15.40;;;1.90;99.90;;;;;;4948259;28;20462;-71